UZB66 UZST-UZTT
Flight info
| Callsign | UZB66 |
|---|---|
| Flight time | N/A |
| Altitude | 29000 |
| Route | N0450F290 KEKAD T962 ETVIN B165 PR L170 KUFIM |
| Aircraft | A21N/M-VGDW/C |
Departure
| Time | N/A |
|---|---|
| Airport | UZST |
Arrival
| Time | 2026-04-30 10:31 |
|---|---|
| Airport | Tashkent International Airport (UZTT) |
| Time | Latitude | Longitude | Altitude | Speed | Heading |
|---|---|---|---|---|---|
| 2026-04-30 09:35 | 37.28145 | 67.31770 | 1035 ft | 0 kts | 76° |
| 2026-04-30 09:41 | 37.28145 | 67.31772 | 1035 ft | 0 kts | 76° |
| 2026-04-30 09:41 | 37.28162 | 67.31807 | 1035 ft | 9 kts | 45° |
| 2026-04-30 09:41 | 37.28240 | 67.31820 | 1035 ft | 14 kts | 340° |
| 2026-04-30 09:41 | 37.28323 | 67.31784 | 1035 ft | 10 kts | 359° |
| 2026-04-30 09:42 | 37.28383 | 67.31863 | 1035 ft | 15 kts | 66° |
| 2026-04-30 09:42 | 37.28431 | 67.32004 | 1035 ft | 19 kts | 66° |
| 2026-04-30 09:42 | 37.28497 | 67.32198 | 1035 ft | 28 kts | 66° |
| 2026-04-30 09:42 | 37.28574 | 67.32422 | 1035 ft | 22 kts | 66° |
| 2026-04-30 09:43 | 37.28653 | 67.32496 | 1035 ft | 16 kts | 357° |
| 2026-04-30 09:43 | 37.28817 | 67.32476 | 1035 ft | 26 kts | 354° |
| 2026-04-30 09:43 | 37.28970 | 67.32450 | 1035 ft | 14 kts | 332° |
| 2026-04-30 09:43 | 37.29000 | 67.32365 | 1035 ft | 11 kts | 263° |
| 2026-04-30 09:44 | 37.28981 | 67.32270 | 1035 ft | 11 kts | 255° |
| 2026-04-30 09:44 | 37.28943 | 67.32097 | 1035 ft | 48 kts | 254° |
| 2026-04-30 09:44 | 37.28783 | 67.31379 | 1035 ft | 119 kts | 252° |
| 2026-04-30 09:44 | 37.28521 | 67.30152 | 1099 ft | 166 kts | 259° |
| 2026-04-30 09:45 | 37.28234 | 67.28677 | 1551 ft | 178 kts | 262° |
| 2026-04-30 09:45 | 37.27954 | 67.27183 | 2170 ft | 180 kts | 258° |
| 2026-04-30 09:45 | 37.27623 | 67.25652 | 2785 ft | 182 kts | 257° |
| 2026-04-30 09:45 | 37.27354 | 67.24068 | 3194 ft | 194 kts | 273° |
| 2026-04-30 09:46 | 37.27816 | 67.22461 | 3605 ft | 202 kts | 311° |
| 2026-04-30 09:46 | 37.29005 | 67.21558 | 4202 ft | 205 kts | 348° |
| 2026-04-30 09:46 | 37.30410 | 67.21758 | 4819 ft | 210 kts | 25° |
| 2026-04-30 09:46 | 37.31433 | 67.23033 | 5412 ft | 217 kts | 63° |
| 2026-04-30 09:47 | 37.31891 | 67.24833 | 6056 ft | 220 kts | 73° |
| 2026-04-30 09:47 | 37.32277 | 67.26706 | 6695 ft | 223 kts | 74° |
| 2026-04-30 09:47 | 37.32666 | 67.28587 | 7333 ft | 225 kts | 73° |
| 2026-04-30 09:47 | 37.33065 | 67.30464 | 7968 ft | 227 kts | 73° |
| 2026-04-30 09:48 | 37.33481 | 67.32388 | 8613 ft | 229 kts | 73° |
| 2026-04-30 09:48 | 37.33958 | 67.34314 | 9212 ft | 233 kts | 63° |
| 2026-04-30 09:48 | 37.34995 | 67.35880 | 9539 ft | 245 kts | 34° |
| 2026-04-30 09:48 | 37.36574 | 67.36935 | 9816 ft | 266 kts | 22° |
| 2026-04-30 09:49 | 37.38306 | 67.37846 | 10192 ft | 285 kts | 21° |
| 2026-04-30 09:49 | 37.40195 | 67.38851 | 10592 ft | 303 kts | 22° |
| 2026-04-30 09:49 | 37.42157 | 67.39949 | 10965 ft | 321 kts | 23° |
| 2026-04-30 09:49 | 37.44292 | 67.41187 | 11322 ft | 339 kts | 24° |
| 2026-04-30 09:50 | 37.46462 | 67.42471 | 11639 ft | 357 kts | 24° |
| 2026-04-30 09:50 | 37.48781 | 67.43857 | 11942 ft | 375 kts | 24° |
| 2026-04-30 09:50 | 37.51163 | 67.45287 | 12228 ft | 391 kts | 24° |
| 2026-04-30 09:50 | 37.53659 | 67.46790 | 12497 ft | 406 kts | 24° |
| 2026-04-30 09:51 | 37.56258 | 67.48356 | 12933 ft | 416 kts | 24° |
| 2026-04-30 09:51 | 37.58869 | 67.49944 | 13580 ft | 419 kts | 25° |
| 2026-04-30 09:51 | 37.61439 | 67.51690 | 14228 ft | 422 kts | 28° |
| 2026-04-30 09:51 | 37.63966 | 67.53662 | 14869 ft | 426 kts | 32° |
| 2026-04-30 09:52 | 37.66366 | 67.55693 | 15456 ft | 429 kts | 29° |
| 2026-04-30 09:52 | 37.69180 | 67.57136 | 16027 ft | 431 kts | 13° |
| 2026-04-30 09:52 | 37.72107 | 67.57972 | 16663 ft | 432 kts | 9° |
| 2026-04-30 09:52 | 37.75035 | 67.58715 | 17220 ft | 436 kts | 9° |
| 2026-04-30 09:53 | 37.78031 | 67.59507 | 17781 ft | 440 kts | 10° |
| 2026-04-30 09:53 | 37.81022 | 67.60347 | 18338 ft | 443 kts | 11° |
| 2026-04-30 09:53 | 37.84044 | 67.61233 | 18882 ft | 446 kts | 11° |
| 2026-04-30 09:53 | 37.87058 | 67.62143 | 19403 ft | 450 kts | 11° |
| 2026-04-30 09:54 | 37.90140 | 67.63090 | 19918 ft | 453 kts | 11° |
| 2026-04-30 09:54 | 37.93191 | 67.64037 | 20409 ft | 456 kts | 11° |
| 2026-04-30 09:54 | 37.96309 | 67.65012 | 20893 ft | 459 kts | 12° |
| 2026-04-30 09:54 | 37.99446 | 67.65995 | 21355 ft | 462 kts | 12° |
| 2026-04-30 09:55 | 38.02583 | 67.66981 | 21800 ft | 465 kts | 12° |
| 2026-04-30 09:55 | 38.05708 | 67.67966 | 22228 ft | 468 kts | 12° |
| 2026-04-30 09:55 | 38.08871 | 67.68964 | 22646 ft | 471 kts | 11° |
| 2026-04-30 09:55 | 38.12085 | 67.69978 | 23068 ft | 474 kts | 11° |
| 2026-04-30 09:56 | 38.15271 | 67.70987 | 23481 ft | 476 kts | 11° |
| 2026-04-30 09:56 | 38.18471 | 67.72001 | 24020 ft | 475 kts | 11° |
| 2026-04-30 09:56 | 38.21634 | 67.73006 | 24608 ft | 472 kts | 11° |
| 2026-04-30 09:56 | 38.24832 | 67.74023 | 25174 ft | 470 kts | 11° |
| 2026-04-30 09:57 | 38.27967 | 67.75022 | 25684 ft | 469 kts | 11° |
| 2026-04-30 09:57 | 38.31148 | 67.76035 | 26176 ft | 468 kts | 11° |
| 2026-04-30 09:57 | 38.34279 | 67.77034 | 26648 ft | 467 kts | 11° |
| 2026-04-30 09:57 | 38.37406 | 67.78031 | 27109 ft | 466 kts | 11° |
| 2026-04-30 09:58 | 38.40553 | 67.79037 | 27537 ft | 466 kts | 11° |
| 2026-04-30 09:58 | 38.43706 | 67.80044 | 27887 ft | 468 kts | 11° |
| 2026-04-30 09:58 | 38.46859 | 67.81050 | 28200 ft | 470 kts | 10° |
| 2026-04-30 09:58 | 38.50013 | 67.82058 | 28509 ft | 472 kts | 10° |
| 2026-04-30 09:59 | 38.56435 | 67.84113 | 28974 ft | 475 kts | 10° |
| 2026-04-30 09:59 | 38.62803 | 67.86153 | 28981 ft | 475 kts | 10° |
| 2026-04-30 10:00 | 38.72443 | 67.89250 | 28982 ft | 475 kts | 10° |
| 2026-04-30 10:01 | 38.82060 | 67.92348 | 28982 ft | 475 kts | 10° |
| 2026-04-30 10:02 | 38.91700 | 67.95461 | 28981 ft | 477 kts | 10° |
| 2026-04-30 10:02 | 38.98147 | 67.97546 | 28980 ft | 482 kts | 11° |
| 2026-04-30 10:03 | 39.04664 | 67.99657 | 28980 ft | 487 kts | 11° |
| 2026-04-30 10:03 | 39.11244 | 68.01798 | 28982 ft | 488 kts | 11° |
| 2026-04-30 10:04 | 39.17816 | 68.03941 | 28982 ft | 489 kts | 11° |
| 2026-04-30 10:04 | 39.24401 | 68.06091 | 28982 ft | 489 kts | 11° |
| 2026-04-30 10:05 | 39.30972 | 68.08238 | 28982 ft | 489 kts | 11° |
| 2026-04-30 10:05 | 39.37561 | 68.10396 | 28982 ft | 488 kts | 11° |
| 2026-04-30 10:06 | 39.44115 | 68.12547 | 28982 ft | 488 kts | 11° |
| 2026-04-30 10:06 | 39.50745 | 68.14728 | 28980 ft | 488 kts | 11° |
| 2026-04-30 10:07 | 39.57354 | 68.16966 | 28867 ft | 492 kts | 13° |
| 2026-04-30 10:07 | 39.63911 | 68.19559 | 28769 ft | 494 kts | 14° |
| 2026-04-30 10:08 | 39.70443 | 68.22203 | 28728 ft | 494 kts | 14° |
| 2026-04-30 10:08 | 39.77005 | 68.24858 | 28715 ft | 494 kts | 14° |
| 2026-04-30 10:09 | 39.83607 | 68.27528 | 28710 ft | 494 kts | 14° |
| 2026-04-30 10:09 | 39.90155 | 68.30180 | 28709 ft | 494 kts | 14° |
| 2026-04-30 10:10 | 39.96719 | 68.32842 | 28709 ft | 494 kts | 14° |
| 2026-04-30 10:10 | 40.03280 | 68.35510 | 28709 ft | 494 kts | 14° |
| 2026-04-30 10:11 | 40.09855 | 68.38187 | 28709 ft | 494 kts | 14° |
| 2026-04-30 10:11 | 40.16487 | 68.40894 | 28709 ft | 494 kts | 14° |
| 2026-04-30 10:12 | 40.23121 | 68.43607 | 28710 ft | 494 kts | 14° |
| 2026-04-30 10:12 | 40.29660 | 68.46286 | 28669 ft | 495 kts | 14° |
| 2026-04-30 10:12 | 40.32975 | 68.47644 | 27969 ft | 498 kts | 14° |
| 2026-04-30 10:13 | 40.36240 | 68.48982 | 27129 ft | 497 kts | 14° |
| 2026-04-30 10:13 | 40.39577 | 68.50352 | 26126 ft | 499 kts | 14° |
| 2026-04-30 10:13 | 40.42880 | 68.51708 | 25024 ft | 502 kts | 14° |
| 2026-04-30 10:13 | 40.46195 | 68.53070 | 23966 ft | 504 kts | 14° |
| 2026-04-30 10:14 | 40.49503 | 68.54432 | 22926 ft | 504 kts | 15° |
| 2026-04-30 10:14 | 40.52817 | 68.55808 | 22158 ft | 490 kts | 15° |
| 2026-04-30 10:14 | 40.59205 | 68.58609 | 20873 ft | 479 kts | 17° |
| 2026-04-30 10:15 | 40.62340 | 68.60039 | 20244 ft | 474 kts | 17° |
| 2026-04-30 10:15 | 40.65411 | 68.61443 | 19638 ft | 470 kts | 17° |
| 2026-04-30 10:15 | 40.68478 | 68.62838 | 19005 ft | 464 kts | 17° |
| 2026-04-30 10:15 | 40.71553 | 68.64223 | 18356 ft | 459 kts | 16° |
| 2026-04-30 10:16 | 40.74564 | 68.65516 | 17715 ft | 454 kts | 16° |
| 2026-04-30 10:16 | 40.77534 | 68.66781 | 17079 ft | 449 kts | 18° |
| 2026-04-30 10:16 | 40.80412 | 68.68326 | 16440 ft | 445 kts | 24° |
| 2026-04-30 10:17 | 40.85692 | 68.72508 | 15172 ft | 437 kts | 34° |
| 2026-04-30 10:17 | 40.90580 | 68.77092 | 13927 ft | 429 kts | 35° |
| 2026-04-30 10:17 | 40.93011 | 68.79384 | 13299 ft | 425 kts | 34° |
| 2026-04-30 10:18 | 40.95382 | 68.81612 | 12682 ft | 421 kts | 34° |
| 2026-04-30 10:18 | 40.97771 | 68.83852 | 12154 ft | 414 kts | 34° |
| 2026-04-30 10:18 | 41.00059 | 68.85995 | 11757 ft | 403 kts | 34° |
| 2026-04-30 10:19 | 41.04498 | 68.90155 | 11209 ft | 379 kts | 35° |
| 2026-04-30 10:19 | 41.06644 | 68.92168 | 10952 ft | 368 kts | 35° |
| 2026-04-30 10:19 | 41.08701 | 68.94102 | 10723 ft | 356 kts | 36° |
| 2026-04-30 10:19 | 41.10658 | 68.96022 | 10499 ft | 345 kts | 43° |
| 2026-04-30 10:20 | 41.12052 | 68.98539 | 10276 ft | 331 kts | 69° |
| 2026-04-30 10:20 | 41.12812 | 69.03341 | 10025 ft | 308 kts | 84° |
| 2026-04-30 10:20 | 41.13084 | 69.06112 | 9892 ft | 296 kts | 84° |
| 2026-04-30 10:21 | 41.13363 | 69.08820 | 9607 ft | 293 kts | 83° |
| 2026-04-30 10:21 | 41.13652 | 69.11472 | 9278 ft | 290 kts | 83° |
| 2026-04-30 10:21 | 41.13948 | 69.14124 | 8954 ft | 288 kts | 83° |
| 2026-04-30 10:21 | 41.14245 | 69.16747 | 8623 ft | 286 kts | 83° |
| 2026-04-30 10:22 | 41.14539 | 69.19345 | 8286 ft | 285 kts | 83° |
| 2026-04-30 10:22 | 41.14835 | 69.21954 | 7946 ft | 283 kts | 83° |
| 2026-04-30 10:22 | 41.15127 | 69.24535 | 7607 ft | 282 kts | 83° |
| 2026-04-30 10:22 | 41.15416 | 69.27093 | 7269 ft | 281 kts | 82° |
| 2026-04-30 10:23 | 41.15707 | 69.29665 | 6929 ft | 279 kts | 82° |
| 2026-04-30 10:23 | 41.15991 | 69.32187 | 6598 ft | 278 kts | 82° |
| 2026-04-30 10:23 | 41.16274 | 69.34723 | 6263 ft | 277 kts | 82° |
| 2026-04-30 10:23 | 41.16557 | 69.37264 | 5932 ft | 275 kts | 82° |
| 2026-04-30 10:24 | 41.16842 | 69.39779 | 5603 ft | 274 kts | 82° |
| 2026-04-30 10:24 | 41.17118 | 69.42246 | 5275 ft | 273 kts | 82° |
| 2026-04-30 10:24 | 41.17397 | 69.44751 | 4989 ft | 269 kts | 82° |
| 2026-04-30 10:24 | 41.17662 | 69.47131 | 4956 ft | 254 kts | 82° |
| 2026-04-30 10:25 | 41.17911 | 69.49391 | 4913 ft | 240 kts | 83° |
| 2026-04-30 10:25 | 41.18253 | 69.51546 | 4820 ft | 237 kts | 65° |
| 2026-04-30 10:25 | 41.19320 | 69.53135 | 4618 ft | 234 kts | 23° |
| 2026-04-30 10:25 | 41.20883 | 69.53471 | 4491 ft | 229 kts | 349° |
| 2026-04-30 10:26 | 41.22438 | 69.53048 | 4371 ft | 227 kts | 343° |
| 2026-04-30 10:26 | 41.23955 | 69.52574 | 4235 ft | 218 kts | 345° |
| 2026-04-30 10:26 | 41.25385 | 69.52205 | 3960 ft | 205 kts | 347° |
| 2026-04-30 10:26 | 41.26762 | 69.51910 | 3603 ft | 197 kts | 348° |
| 2026-04-30 10:27 | 41.28045 | 69.51442 | 3284 ft | 183 kts | 323° |
| 2026-04-30 10:27 | 41.28605 | 69.50175 | 3176 ft | 150 kts | 269° |
| 2026-04-30 10:27 | 41.28415 | 69.48839 | 3207 ft | 144 kts | 254° |
| 2026-04-30 10:27 | 41.28133 | 69.47559 | 3223 ft | 143 kts | 255° |
| 2026-04-30 10:28 | 41.27900 | 69.46271 | 3250 ft | 143 kts | 259° |
| 2026-04-30 10:28 | 41.27717 | 69.44974 | 3267 ft | 144 kts | 262° |
| 2026-04-30 10:28 | 41.27561 | 69.43664 | 3298 ft | 144 kts | 262° |
| 2026-04-30 10:28 | 41.27414 | 69.42348 | 3252 ft | 144 kts | 263° |
| 2026-04-30 10:29 | 41.27269 | 69.41034 | 3062 ft | 144 kts | 263° |
| 2026-04-30 10:29 | 41.27125 | 69.39720 | 2874 ft | 143 kts | 263° |
| 2026-04-30 10:29 | 41.26982 | 69.38422 | 2686 ft | 142 kts | 262° |
| 2026-04-30 10:29 | 41.26837 | 69.37109 | 2496 ft | 144 kts | 262° |
| 2026-04-30 10:30 | 41.26691 | 69.35788 | 2308 ft | 144 kts | 262° |
| 2026-04-30 10:30 | 41.26547 | 69.34480 | 2116 ft | 142 kts | 262° |
| 2026-04-30 10:30 | 41.26402 | 69.33174 | 1918 ft | 144 kts | 263° |
| 2026-04-30 10:30 | 41.26258 | 69.31869 | 1745 ft | 143 kts | 263° |
| 2026-04-30 10:31 | 41.26108 | 69.30547 | 1551 ft | 142 kts | 263° |
| 2026-04-30 10:31 | 41.25970 | 69.29282 | 1429 ft | 134 kts | 264° |
| 2026-04-30 10:31 | 41.25865 | 69.28262 | 1425 ft | 71 kts | 260° |
| 2026-04-30 10:31 | 41.25826 | 69.27922 | 1425 ft | 23 kts | 261° |
| 2026-04-30 10:32 | 41.25803 | 69.27726 | 1425 ft | 15 kts | 261° |
| 2026-04-30 10:32 | 41.25729 | 69.27654 | 1425 ft | 15 kts | 161° |
| 2026-04-30 10:32 | 41.25634 | 69.27695 | 1425 ft | 14 kts | 197° |
| 2026-04-30 10:32 | 41.25592 | 69.27567 | 1425 ft | 17 kts | 262° |
| 2026-04-30 10:33 | 41.25574 | 69.27391 | 1425 ft | 20 kts | 262° |
| 2026-04-30 10:33 | 41.25520 | 69.27207 | 1425 ft | 23 kts | 233° |
| 2026-04-30 10:33 | 41.25417 | 69.27032 | 1425 ft | 25 kts | 231° |
| 2026-04-30 10:33 | 41.25309 | 69.26852 | 1425 ft | 18 kts | 232° |
| 2026-04-30 10:34 | 41.25257 | 69.26715 | 1425 ft | 16 kts | 267° |
| 2026-04-30 10:34 | 41.25257 | 69.26561 | 1425 ft | 13 kts | 271° |
| 2026-04-30 10:34 | 41.25239 | 69.26479 | 1425 ft | 5 kts | 205° |
| 2026-04-30 10:34 | 41.25210 | 69.26475 | 1425 ft | 4 kts | 181° |
| 2026-04-30 10:35 | 41.25207 | 69.26475 | 1425 ft | 0 kts | 181° |